sensor_id;sensor_type;location;lat;lon;timestamp;P1;durP1;ratioP1;P2;durP2;ratioP2
6549;SDS011;15142;48.888;9.134;2022-12-16T00:01:08;53.83;;;24.60;;
6549;SDS011;15142;48.888;9.134;2022-12-16T00:03:37;57.40;;;26.00;;
6549;SDS011;15142;48.888;9.134;2022-12-16T00:06:05;52.03;;;24.30;;
6549;SDS011;15142;48.888;9.134;2022-12-16T00:08:34;59.73;;;28.43;;
6549;SDS011;15142;48.888;9.134;2022-12-16T00:11:03;65.73;;;26.87;;
6549;SDS011;15142;48.888;9.134;2022-12-16T00:13:30;60.40;;;25.80;;
6549;SDS011;15142;48.888;9.134;2022-12-16T00:15:59;54.77;;;25.80;;
6549;SDS011;15142;48.888;9.134;2022-12-16T00:18:30;54.37;;;23.70;;
6549;SDS011;15142;48.888;9.134;2022-12-16T00:20:57;53.00;;;24.20;;
6549;SDS011;15142;48.888;9.134;2022-12-16T00:23:24;68.20;;;27.07;;
6549;SDS011;15142;48.888;9.134;2022-12-16T00:25:50;58.47;;;25.70;;
6549;SDS011;15142;48.888;9.134;2022-12-16T00:28:17;51.07;;;23.03;;
6549;SDS011;15142;48.888;9.134;2022-12-16T00:30:46;60.80;;;24.20;;
6549;SDS011;15142;48.888;9.134;2022-12-16T00:33:14;58.83;;;25.23;;
6549;SDS011;15142;48.888;9.134;2022-12-16T00:35:43;55.70;;;25.00;;
6549;SDS011;15142;48.888;9.134;2022-12-16T00:38:10;56.17;;;26.30;;
6549;SDS011;15142;48.888;9.134;2022-12-16T00:40:37;54.53;;;25.30;;
6549;SDS011;15142;48.888;9.134;2022-12-16T00:43:03;72.53;;;26.30;;
6549;SDS011;15142;48.888;9.134;2022-12-16T00:45:30;53.83;;;25.73;;
6549;SDS011;15142;48.888;9.134;2022-12-16T00:47:57;59.37;;;26.90;;
6549;SDS011;15142;48.888;9.134;2022-12-16T00:50:24;53.63;;;23.73;;
6549;SDS011;15142;48.888;9.134;2022-12-16T00:52:52;56.37;;;24.67;;
6549;SDS011;15142;48.888;9.134;2022-12-16T00:55:19;60.17;;;25.87;;
6549;SDS011;15142;48.888;9.134;2022-12-16T00:57:45;51.83;;;21.47;;
6549;SDS011;15142;48.888;9.134;2022-12-16T01:00:13;64.03;;;26.23;;
6549;SDS011;15142;48.888;9.134;2022-12-16T01:02:43;62.70;;;25.30;;
6549;SDS011;15142;48.888;9.134;2022-12-16T01:05:12;61.63;;;27.00;;
6549;SDS011;15142;48.888;9.134;2022-12-16T01:07:41;54.93;;;24.77;;
6549;SDS011;15142;48.888;9.134;2022-12-16T01:10:09;45.10;;;22.83;;
6549;SDS011;15142;48.888;9.134;2022-12-16T01:12:36;59.60;;;27.33;;
6549;SDS011;15142;48.888;9.134;2022-12-16T01:15:05;49.87;;;21.47;;
6549;SDS011;15142;48.888;9.134;2022-12-16T01:17:34;53.60;;;21.67;;
6549;SDS011;15142;48.888;9.134;2022-12-16T01:20:02;49.67;;;22.40;;
6549;SDS011;15142;48.888;9.134;2022-12-16T01:22:30;63.77;;;26.20;;
6549;SDS011;15142;48.888;9.134;2022-12-16T01:24:57;47.40;;;20.53;;
6549;SDS011;15142;48.888;9.134;2022-12-16T01:27:26;43.13;;;23.50;;
6549;SDS011;15142;48.888;9.134;2022-12-16T01:29:53;60.53;;;22.03;;
6549;SDS011;15142;48.888;9.134;2022-12-16T01:32:20;49.03;;;22.00;;
6549;SDS011;15142;48.888;9.134;2022-12-16T01:34:48;46.27;;;22.77;;
6549;SDS011;15142;48.888;9.134;2022-12-16T01:37:15;57.43;;;25.60;;
6549;SDS011;15142;48.888;9.134;2022-12-16T01:39:41;54.70;;;23.33;;
6549;SDS011;15142;48.888;9.134;2022-12-16T01:42:09;68.20;;;23.77;;
6549;SDS011;15142;48.888;9.134;2022-12-16T01:44:40;52.20;;;22.43;;
6549;SDS011;15142;48.888;9.134;2022-12-16T01:47:08;54.23;;;24.43;;
6549;SDS011;15142;48.888;9.134;2022-12-16T01:49:41;55.00;;;24.93;;
6549;SDS011;15142;48.888;9.134;2022-12-16T01:52:09;54.60;;;25.00;;
6549;SDS011;15142;48.888;9.134;2022-12-16T01:54:42;48.80;;;24.23;;
6549;SDS011;15142;48.888;9.134;2022-12-16T01:57:12;46.00;;;23.63;;
6549;SDS011;15142;48.888;9.134;2022-12-16T01:59:45;45.60;;;22.27;;
6549;SDS011;15142;48.888;9.134;2022-12-16T02:02:13;58.87;;;25.00;;
6549;SDS011;15142;48.888;9.134;2022-12-16T02:04:40;81.63;;;26.20;;
6549;SDS011;15142;48.888;9.134;2022-12-16T02:07:28;51.80;;;24.10;;
6549;SDS011;15142;48.888;9.134;2022-12-16T02:09:54;54.40;;;24.47;;
6549;SDS011;15142;48.888;9.134;2022-12-16T02:12:23;60.83;;;24.30;;
6549;SDS011;15142;48.888;9.134;2022-12-16T02:14:59;46.00;;;24.40;;
6549;SDS011;15142;48.888;9.134;2022-12-16T02:17:35;56.87;;;25.13;;
6549;SDS011;15142;48.888;9.134;2022-12-16T02:29:35;47.60;;;25.37;;
6549;SDS011;15142;48.888;9.134;2022-12-16T02:32:20;52.00;;;25.00;;
6549;SDS011;15142;48.888;9.134;2022-12-16T02:34:55;46.53;;;22.00;;
6549;SDS011;15142;48.888;9.134;2022-12-16T02:37:30;43.30;;;22.17;;
6549;SDS011;15142;48.888;9.134;2022-12-16T02:40:02;51.63;;;22.60;;
6549;SDS011;15142;48.888;9.134;2022-12-16T02:42:33;42.40;;;21.37;;
6549;SDS011;15142;48.888;9.134;2022-12-16T02:45:05;54.30;;;22.20;;
6549;SDS011;15142;48.888;9.134;2022-12-16T02:47:37;52.47;;;22.57;;
6549;SDS011;15142;48.888;9.134;2022-12-16T02:50:05;41.40;;;22.30;;
6549;SDS011;15142;48.888;9.134;2022-12-16T02:52:42;47.20;;;20.33;;
6549;SDS011;15142;48.888;9.134;2022-12-16T02:55:08;50.87;;;22.67;;
6549;SDS011;15142;48.888;9.134;2022-12-16T02:57:40;42.60;;;21.27;;
6549;SDS011;15142;48.888;9.134;2022-12-16T03:00:14;44.90;;;19.27;;
6549;SDS011;15142;48.888;9.134;2022-12-16T03:02:46;48.30;;;23.93;;
6549;SDS011;15142;48.888;9.134;2022-12-16T03:05:20;46.63;;;20.80;;
6549;SDS011;15142;48.888;9.134;2022-12-16T03:07:50;50.80;;;22.50;;
6549;SDS011;15142;48.888;9.134;2022-12-16T03:10:20;43.07;;;21.60;;
6549;SDS011;15142;48.888;9.134;2022-12-16T03:12:50;47.70;;;21.10;;
6549;SDS011;15142;48.888;9.134;2022-12-16T03:15:20;46.50;;;20.30;;
6549;SDS011;15142;48.888;9.134;2022-12-16T03:17:51;46.77;;;19.87;;
6549;SDS011;15142;48.888;9.134;2022-12-16T03:20:20;49.50;;;20.80;;
6549;SDS011;15142;48.888;9.134;2022-12-16T03:22:53;61.27;;;20.90;;
6549;SDS011;15142;48.888;9.134;2022-12-16T03:25:20;42.87;;;19.30;;
6549;SDS011;15142;48.888;9.134;2022-12-16T03:27:50;39.23;;;18.67;;
6549;SDS011;15142;48.888;9.134;2022-12-16T03:30:22;38.67;;;19.30;;
6549;SDS011;15142;48.888;9.134;2022-12-16T03:32:56;45.03;;;20.07;;
6549;SDS011;15142;48.888;9.134;2022-12-16T03:35:26;39.73;;;19.40;;
6549;SDS011;15142;48.888;9.134;2022-12-16T03:37:57;148.30;;;21.30;;
6549;SDS011;15142;48.888;9.134;2022-12-16T03:40:27;43.07;;;20.17;;
6549;SDS011;15142;48.888;9.134;2022-12-16T03:42:54;37.93;;;19.10;;
6549;SDS011;15142;48.888;9.134;2022-12-16T03:45:23;40.53;;;17.40;;
6549;SDS011;15142;48.888;9.134;2022-12-16T03:47:55;36.40;;;17.93;;
6549;SDS011;15142;48.888;9.134;2022-12-16T03:50:24;36.93;;;18.10;;
6549;SDS011;15142;48.888;9.134;2022-12-16T03:52:53;34.93;;;16.97;;
6549;SDS011;15142;48.888;9.134;2022-12-16T03:55:20;39.83;;;19.50;;
6549;SDS011;15142;48.888;9.134;2022-12-16T03:57:46;35.40;;;18.10;;
6549;SDS011;15142;48.888;9.134;2022-12-16T04:00:13;32.10;;;15.60;;
6549;SDS011;15142;48.888;9.134;2022-12-16T04:02:40;35.30;;;17.90;;
6549;SDS011;15142;48.888;9.134;2022-12-16T04:05:09;41.17;;;18.00;;
6549;SDS011;15142;48.888;9.134;2022-12-16T04:07:36;39.23;;;18.70;;
6549;SDS011;15142;48.888;9.134;2022-12-16T04:10:04;42.20;;;18.07;;
6549;SDS011;15142;48.888;9.134;2022-12-16T04:12:32;48.33;;;18.53;;
6549;SDS011;15142;48.888;9.134;2022-12-16T04:15:16;37.50;;;15.03;;
6549;SDS011;15142;48.888;9.134;2022-12-16T04:18:00;34.03;;;17.97;;
6549;SDS011;15142;48.888;9.134;2022-12-16T04:20:46;29.43;;;15.27;;
6549;SDS011;15142;48.888;9.134;2022-12-16T04:23:34;31.23;;;16.33;;
6549;SDS011;15142;48.888;9.134;2022-12-16T04:26:20;40.70;;;16.73;;
6549;SDS011;15142;48.888;9.134;2022-12-16T04:28:48;38.57;;;17.17;;
6549;SDS011;15142;48.888;9.134;2022-12-16T04:31:15;46.37;;;17.67;;
6549;SDS011;15142;48.888;9.134;2022-12-16T04:33:42;31.77;;;16.03;;
6549;SDS011;15142;48.888;9.134;2022-12-16T04:36:28;29.40;;;16.80;;
6549;SDS011;15142;48.888;9.134;2022-12-16T04:39:13;30.63;;;16.50;;
6549;SDS011;15142;48.888;9.134;2022-12-16T04:41:57;25.47;;;15.00;;
6549;SDS011;15142;48.888;9.134;2022-12-16T04:44:42;39.07;;;18.07;;
6549;SDS011;15142;48.888;9.134;2022-12-16T04:47:27;39.37;;;14.37;;
6549;SDS011;15142;48.888;9.134;2022-12-16T04:50:11;40.00;;;18.10;;
6549;SDS011;15142;48.888;9.134;2022-12-16T04:52:57;32.57;;;16.17;;
6549;SDS011;15142;48.888;9.134;2022-12-16T04:55:41;31.93;;;16.27;;
6549;SDS011;15142;48.888;9.134;2022-12-16T04:58:25;26.53;;;14.77;;
6549;SDS011;15142;48.888;9.134;2022-12-16T05:01:10;33.73;;;15.70;;
6549;SDS011;15142;48.888;9.134;2022-12-16T05:03:54;33.10;;;15.60;;
6549;SDS011;15142;48.888;9.134;2022-12-16T05:06:38;31.07;;;15.87;;
6549;SDS011;15142;48.888;9.134;2022-12-16T05:09:24;36.87;;;17.53;;
6549;SDS011;15142;48.888;9.134;2022-12-16T05:12:08;36.47;;;18.40;;
6549;SDS011;15142;48.888;9.134;2022-12-16T05:14:53;34.53;;;17.10;;
6549;SDS011;15142;48.888;9.134;2022-12-16T05:17:37;33.10;;;16.70;;
6549;SDS011;15142;48.888;9.134;2022-12-16T05:20:33;33.80;;;17.50;;
6549;SDS011;15142;48.888;9.134;2022-12-16T05:23:17;28.10;;;15.20;;
6549;SDS011;15142;48.888;9.134;2022-12-16T05:26:03;31.83;;;17.23;;
6549;SDS011;15142;48.888;9.134;2022-12-16T05:28:47;28.60;;;16.20;;
6549;SDS011;15142;48.888;9.134;2022-12-16T05:31:31;36.80;;;17.80;;
6549;SDS011;15142;48.888;9.134;2022-12-16T05:34:16;39.33;;;16.73;;
6549;SDS011;15142;48.888;9.134;2022-12-16T05:36:59;41.23;;;16.50;;
6549;SDS011;15142;48.888;9.134;2022-12-16T05:39:43;29.27;;;16.80;;
6549;SDS011;15142;48.888;9.134;2022-12-16T05:42:29;37.63;;;17.17;;
6549;SDS011;15142;48.888;9.134;2022-12-16T05:45:16;42.53;;;19.33;;
6549;SDS011;15142;48.888;9.134;2022-12-16T05:47:56;39.37;;;20.47;;
6549;SDS011;15142;48.888;9.134;2022-12-16T05:50:40;44.93;;;22.70;;
6549;SDS011;15142;48.888;9.134;2022-12-16T05:53:25;55.17;;;22.50;;
6549;SDS011;15142;48.888;9.134;2022-12-16T05:56:09;38.60;;;19.03;;
6549;SDS011;15142;48.888;9.134;2022-12-16T05:58:55;46.37;;;20.13;;
6549;SDS011;15142;48.888;9.134;2022-12-16T06:01:38;36.73;;;18.40;;
6549;SDS011;15142;48.888;9.134;2022-12-16T06:04:23;36.13;;;17.40;;
6549;SDS011;15142;48.888;9.134;2022-12-16T06:07:03;32.40;;;15.43;;
6549;SDS011;15142;48.888;9.134;2022-12-16T06:09:48;46.53;;;18.23;;
6549;SDS011;15142;48.888;9.134;2022-12-16T06:12:32;42.70;;;20.70;;
6549;SDS011;15142;48.888;9.134;2022-12-16T06:15:17;44.47;;;20.17;;
6549;SDS011;15142;48.888;9.134;2022-12-16T06:18:02;39.07;;;18.60;;
6549;SDS011;15142;48.888;9.134;2022-12-16T06:20:46;47.73;;;19.53;;
6549;SDS011;15142;48.888;9.134;2022-12-16T06:23:31;38.83;;;18.10;;
6549;SDS011;15142;48.888;9.134;2022-12-16T06:26:15;43.93;;;19.93;;
6549;SDS011;15142;48.888;9.134;2022-12-16T06:28:59;45.60;;;18.90;;
6549;SDS011;15142;48.888;9.134;2022-12-16T06:31:45;47.63;;;19.87;;
6549;SDS011;15142;48.888;9.134;2022-12-16T06:34:29;43.57;;;19.80;;
6549;SDS011;15142;48.888;9.134;2022-12-16T06:37:13;35.57;;;19.40;;
6549;SDS011;15142;48.888;9.134;2022-12-16T06:39:58;44.10;;;18.90;;
6549;SDS011;15142;48.888;9.134;2022-12-16T06:42:42;46.50;;;19.70;;
6549;SDS011;15142;48.888;9.134;2022-12-16T06:45:26;42.97;;;18.67;;
6549;SDS011;15142;48.888;9.134;2022-12-16T06:48:12;35.10;;;18.80;;
6549;SDS011;15142;48.888;9.134;2022-12-16T06:50:56;38.57;;;19.00;;
6549;SDS011;15142;48.888;9.134;2022-12-16T06:53:41;39.40;;;20.33;;
6549;SDS011;15142;48.888;9.134;2022-12-16T06:56:25;43.33;;;18.27;;
6549;SDS011;15142;48.888;9.134;2022-12-16T06:59:09;42.47;;;17.83;;
6549;SDS011;15142;48.888;9.134;2022-12-16T07:01:54;30.67;;;17.77;;
6549;SDS011;15142;48.888;9.134;2022-12-16T07:04:39;44.90;;;19.10;;
6549;SDS011;15142;48.888;9.134;2022-12-16T07:07:23;34.43;;;16.37;;
6549;SDS011;15142;48.888;9.134;2022-12-16T07:10:08;31.90;;;16.97;;
6549;SDS011;15142;48.888;9.134;2022-12-16T07:12:55;36.50;;;19.20;;
6549;SDS011;15142;48.888;9.134;2022-12-16T07:15:40;38.03;;;18.27;;
6549;SDS011;15142;48.888;9.134;2022-12-16T07:18:24;64.97;;;24.80;;
6549;SDS011;15142;48.888;9.134;2022-12-16T07:21:10;45.27;;;18.70;;
6549;SDS011;15142;48.888;9.134;2022-12-16T07:23:54;29.43;;;14.60;;
6549;SDS011;15142;48.888;9.134;2022-12-16T07:26:38;32.93;;;18.80;;
6549;SDS011;15142;48.888;9.134;2022-12-16T07:29:23;35.60;;;16.10;;
6549;SDS011;15142;48.888;9.134;2022-12-16T07:32:07;36.30;;;16.93;;
6549;SDS011;15142;48.888;9.134;2022-12-16T07:34:51;36.07;;;18.10;;
6549;SDS011;15142;48.888;9.134;2022-12-16T07:37:38;40.17;;;16.73;;
6549;SDS011;15142;48.888;9.134;2022-12-16T07:40:22;30.57;;;15.90;;
6549;SDS011;15142;48.888;9.134;2022-12-16T07:43:06;28.37;;;15.43;;
6549;SDS011;15142;48.888;9.134;2022-12-16T07:45:50;30.37;;;15.80;;
6549;SDS011;15142;48.888;9.134;2022-12-16T07:48:35;35.57;;;15.90;;
6549;SDS011;15142;48.888;9.134;2022-12-16T07:51:19;38.53;;;17.70;;
6549;SDS011;15142;48.888;9.134;2022-12-16T07:54:07;62.90;;;27.53;;
6549;SDS011;15142;48.888;9.134;2022-12-16T07:56:51;33.60;;;15.80;;
6549;SDS011;15142;48.888;9.134;2022-12-16T07:59:35;44.33;;;18.50;;
6549;SDS011;15142;48.888;9.134;2022-12-16T08:02:25;41.40;;;24.00;;
6549;SDS011;15142;48.888;9.134;2022-12-16T08:05:09;44.20;;;22.03;;
6549;SDS011;15142;48.888;9.134;2022-12-16T08:07:54;47.77;;;24.20;;
6549;SDS011;15142;48.888;9.134;2022-12-16T08:10:39;32.67;;;15.63;;
6549;SDS011;15142;48.888;9.134;2022-12-16T08:13:24;38.57;;;18.20;;
6549;SDS011;15142;48.888;9.134;2022-12-16T08:16:08;49.00;;;24.67;;
6549;SDS011;15142;48.888;9.134;2022-12-16T08:18:52;53.43;;;19.80;;
6549;SDS011;15142;48.888;9.134;2022-12-16T08:21:37;37.53;;;18.47;;
6549;SDS011;15142;48.888;9.134;2022-12-16T08:24:21;36.63;;;15.90;;
6549;SDS011;15142;48.888;9.134;2022-12-16T08:27:07;39.77;;;20.30;;
6549;SDS011;15142;48.888;9.134;2022-12-16T08:29:51;44.60;;;20.20;;
6549;SDS011;15142;48.888;9.134;2022-12-16T08:32:35;36.33;;;18.87;;
6549;SDS011;15142;48.888;9.134;2022-12-16T08:35:19;27.77;;;16.60;;
6549;SDS011;15142;48.888;9.134;2022-12-16T08:38:04;30.13;;;16.00;;
6549;SDS011;15142;48.888;9.134;2022-12-16T08:40:48;27.87;;;13.53;;
6549;SDS011;15142;48.888;9.134;2022-12-16T08:43:34;29.17;;;13.50;;
6549;SDS011;15142;48.888;9.134;2022-12-16T08:46:18;29.93;;;14.30;;
6549;SDS011;15142;48.888;9.134;2022-12-16T08:49:03;31.20;;;15.17;;
6549;SDS011;15142;48.888;9.134;2022-12-16T08:51:48;34.80;;;16.50;;
6549;SDS011;15142;48.888;9.134;2022-12-16T08:54:32;23.80;;;11.97;;
6549;SDS011;15142;48.888;9.134;2022-12-16T08:57:16;25.17;;;13.07;;
6549;SDS011;15142;48.888;9.134;2022-12-16T09:00:02;35.13;;;16.23;;
6549;SDS011;15142;48.888;9.134;2022-12-16T09:02:51;30.93;;;15.73;;
6549;SDS011;15142;48.888;9.134;2022-12-16T09:05:35;27.37;;;12.93;;
6549;SDS011;15142;48.888;9.134;2022-12-16T09:08:20;51.70;;;26.23;;
6549;SDS011;15142;48.888;9.134;2022-12-16T09:11:04;33.47;;;15.63;;
6549;SDS011;15142;48.888;9.134;2022-12-16T09:13:48;35.97;;;16.23;;
6549;SDS011;15142;48.888;9.134;2022-12-16T09:16:34;38.30;;;16.47;;
6549;SDS011;15142;48.888;9.134;2022-12-16T09:19:18;41.43;;;19.40;;
6549;SDS011;15142;48.888;9.134;2022-12-16T09:22:02;35.20;;;15.10;;
6549;SDS011;15142;48.888;9.134;2022-12-16T09:24:46;22.17;;;12.00;;
6549;SDS011;15142;48.888;9.134;2022-12-16T09:27:31;27.47;;;13.07;;
6549;SDS011;15142;48.888;9.134;2022-12-16T09:30:15;27.13;;;13.10;;
6549;SDS011;15142;48.888;9.134;2022-12-16T09:33:01;49.57;;;21.90;;
6549;SDS011;15142;48.888;9.134;2022-12-16T09:35:45;27.63;;;14.10;;
6549;SDS011;15142;48.888;9.134;2022-12-16T09:38:30;32.17;;;18.03;;
6549;SDS011;15142;48.888;9.134;2022-12-16T09:41:19;35.80;;;15.17;;
6549;SDS011;15142;48.888;9.134;2022-12-16T09:44:13;31.33;;;13.13;;
6549;SDS011;15142;48.888;9.134;2022-12-16T09:47:09;33.63;;;16.00;;
6549;SDS011;15142;48.888;9.134;2022-12-16T09:50:04;32.10;;;13.40;;
6549;SDS011;15142;48.888;9.134;2022-12-16T09:52:54;28.57;;;14.77;;
6549;SDS011;15142;48.888;9.134;2022-12-16T09:55:43;27.60;;;13.07;;
6549;SDS011;15142;48.888;9.134;2022-12-16T09:58:29;29.60;;;12.93;;
6549;SDS011;15142;48.888;9.134;2022-12-16T10:01:18;26.30;;;13.27;;
6549;SDS011;15142;48.888;9.134;2022-12-16T10:04:03;37.80;;;13.50;;
6549;SDS011;15142;48.888;9.134;2022-12-16T10:06:51;30.50;;;12.73;;
6549;SDS011;15142;48.888;9.134;2022-12-16T10:09:40;22.27;;;11.63;;
6549;SDS011;15142;48.888;9.134;2022-12-16T10:12:36;23.10;;;12.27;;
6549;SDS011;15142;48.888;9.134;2022-12-16T10:15:29;30.00;;;12.50;;
6549;SDS011;15142;48.888;9.134;2022-12-16T10:18:23;29.83;;;14.70;;
6549;SDS011;15142;48.888;9.134;2022-12-16T10:21:14;24.10;;;13.13;;
6549;SDS011;15142;48.888;9.134;2022-12-16T10:24:06;26.63;;;12.70;;
6549;SDS011;15142;48.888;9.134;2022-12-16T10:26:58;30.63;;;13.27;;
6549;SDS011;15142;48.888;9.134;2022-12-16T10:29:47;37.30;;;17.17;;
6549;SDS011;15142;48.888;9.134;2022-12-16T10:32:32;23.27;;;13.10;;
6549;SDS011;15142;48.888;9.134;2022-12-16T10:35:21;23.00;;;11.87;;
6549;SDS011;15142;48.888;9.134;2022-12-16T10:38:17;31.93;;;14.53;;
6549;SDS011;15142;48.888;9.134;2022-12-16T10:41:06;27.40;;;12.27;;
6549;SDS011;15142;48.888;9.134;2022-12-16T10:43:51;22.43;;;14.30;;
6549;SDS011;15142;48.888;9.134;2022-12-16T10:46:38;28.40;;;12.67;;
6549;SDS011;15142;48.888;9.134;2022-12-16T10:49:22;31.67;;;12.17;;
6549;SDS011;15142;48.888;9.134;2022-12-16T10:52:08;25.87;;;12.77;;
6549;SDS011;15142;48.888;9.134;2022-12-16T10:54:56;36.53;;;14.27;;
6549;SDS011;15142;48.888;9.134;2022-12-16T10:57:50;26.77;;;14.50;;
6549;SDS011;15142;48.888;9.134;2022-12-16T11:00:44;31.47;;;12.37;;
6549;SDS011;15142;48.888;9.134;2022-12-16T11:03:30;27.30;;;12.63;;
6549;SDS011;15142;48.888;9.134;2022-12-16T11:06:18;24.10;;;12.60;;
6549;SDS011;15142;48.888;9.134;2022-12-16T11:09:19;29.23;;;12.70;;
6549;SDS011;15142;48.888;9.134;2022-12-16T11:12:20;17.23;;;10.13;;
6549;SDS011;15142;48.888;9.134;2022-12-16T11:15:21;23.30;;;13.43;;
6549;SDS011;15142;48.888;9.134;2022-12-16T11:18:11;25.00;;;11.87;;
6549;SDS011;15142;48.888;9.134;2022-12-16T11:21:04;19.40;;;11.40;;
6549;SDS011;15142;48.888;9.134;2022-12-16T11:24:03;21.30;;;11.03;;
6549;SDS011;15142;48.888;9.134;2022-12-16T11:26:57;31.63;;;13.27;;
6549;SDS011;15142;48.888;9.134;2022-12-16T11:29:53;19.07;;;10.13;;
6549;SDS011;15142;48.888;9.134;2022-12-16T11:32:40;28.33;;;14.00;;
6549;SDS011;15142;48.888;9.134;2022-12-16T11:35:29;21.23;;;12.23;;
6549;SDS011;15142;48.888;9.134;2022-12-16T11:41:21;22.63;;;11.73;;
6549;SDS011;15142;48.888;9.134;2022-12-16T11:44:11;22.43;;;11.63;;
6549;SDS011;15142;48.888;9.134;2022-12-16T11:46:59;28.10;;;13.63;;
6549;SDS011;15142;48.888;9.134;2022-12-16T11:49:45;28.33;;;14.40;;
6549;SDS011;15142;48.888;9.134;2022-12-16T11:52:29;17.50;;;9.73;;
6549;SDS011;15142;48.888;9.134;2022-12-16T11:55:18;28.40;;;15.50;;
6549;SDS011;15142;48.888;9.134;2022-12-16T11:58:10;31.40;;;13.63;;
6549;SDS011;15142;48.888;9.134;2022-12-16T12:01:02;48.57;;;21.87;;
6549;SDS011;15142;48.888;9.134;2022-12-16T12:03:53;55.23;;;29.90;;
6549;SDS011;15142;48.888;9.134;2022-12-16T12:06:44;25.53;;;11.90;;
6549;SDS011;15142;48.888;9.134;2022-12-16T12:09:57;28.60;;;12.40;;
6549;SDS011;15142;48.888;9.134;2022-12-16T12:12:51;28.23;;;11.87;;
6549;SDS011;15142;48.888;9.134;2022-12-16T12:15:43;19.93;;;10.63;;
6549;SDS011;15142;48.888;9.134;2022-12-16T12:18:38;22.27;;;10.63;;
6549;SDS011;15142;48.888;9.134;2022-12-16T12:21:26;24.13;;;13.27;;
6549;SDS011;15142;48.888;9.134;2022-12-16T12:24:21;20.80;;;11.47;;
6549;SDS011;15142;48.888;9.134;2022-12-16T12:27:13;23.40;;;11.07;;
6549;SDS011;15142;48.888;9.134;2022-12-16T12:30:03;24.27;;;12.97;;
6549;SDS011;15142;48.888;9.134;2022-12-16T12:32:58;25.07;;;12.57;;
6549;SDS011;15142;48.888;9.134;2022-12-16T12:35:55;23.03;;;10.93;;
6549;SDS011;15142;48.888;9.134;2022-12-16T12:38:48;23.83;;;11.87;;
6549;SDS011;15142;48.888;9.134;2022-12-16T12:41:48;19.73;;;10.93;;
6549;SDS011;15142;48.888;9.134;2022-12-16T12:44:44;18.70;;;11.50;;
6549;SDS011;15142;48.888;9.134;2022-12-16T12:47:39;23.60;;;11.90;;
6549;SDS011;15142;48.888;9.134;2022-12-16T12:50:30;44.10;;;11.43;;
6549;SDS011;15142;48.888;9.134;2022-12-16T12:53:21;23.83;;;12.10;;
6549;SDS011;15142;48.888;9.134;2022-12-16T12:56:15;23.13;;;12.50;;
6549;SDS011;15142;48.888;9.134;2022-12-16T12:59:10;30.47;;;12.57;;
6549;SDS011;15142;48.888;9.134;2022-12-16T13:02:00;30.10;;;12.73;;
6549;SDS011;15142;48.888;9.134;2022-12-16T13:04:46;20.43;;;12.00;;
6549;SDS011;15142;48.888;9.134;2022-12-16T13:07:33;25.43;;;13.10;;
6549;SDS011;15142;48.888;9.134;2022-12-16T13:10:30;31.30;;;13.90;;
6549;SDS011;15142;48.888;9.134;2022-12-16T13:13:20;22.30;;;13.00;;
6549;SDS011;15142;48.888;9.134;2022-12-16T13:19:53;24.80;;;11.50;;
6549;SDS011;15142;48.888;9.134;2022-12-16T13:22:39;24.93;;;13.00;;
6549;SDS011;15142;48.888;9.134;2022-12-16T13:28:28;27.10;;;11.70;;
6549;SDS011;15142;48.888;9.134;2022-12-16T13:31:14;28.57;;;11.00;;
6549;SDS011;15142;48.888;9.134;2022-12-16T13:34:02;22.70;;;11.97;;
6549;SDS011;15142;48.888;9.134;2022-12-16T13:36:53;22.43;;;11.83;;
6549;SDS011;15142;48.888;9.134;2022-12-16T13:39:39;29.60;;;13.03;;
6549;SDS011;15142;48.888;9.134;2022-12-16T13:42:52;24.63;;;14.97;;
6549;SDS011;15142;48.888;9.134;2022-12-16T13:45:38;20.63;;;11.47;;
6549;SDS011;15142;48.888;9.134;2022-12-16T13:48:36;21.33;;;10.73;;
6549;SDS011;15142;48.888;9.134;2022-12-16T13:54:57;21.70;;;11.60;;
6549;SDS011;15142;48.888;9.134;2022-12-16T13:57:45;19.63;;;10.73;;
6549;SDS011;15142;48.888;9.134;2022-12-16T14:00:31;21.30;;;10.63;;
6549;SDS011;15142;48.888;9.134;2022-12-16T14:03:21;25.03;;;12.17;;
6549;SDS011;15142;48.888;9.134;2022-12-16T14:06:11;19.60;;;11.73;;
6549;SDS011;15142;48.888;9.134;2022-12-16T14:09:01;19.00;;;9.93;;
6549;SDS011;15142;48.888;9.134;2022-12-16T14:11:49;20.23;;;10.50;;
6549;SDS011;15142;48.888;9.134;2022-12-16T14:14:50;25.30;;;11.40;;
6549;SDS011;15142;48.888;9.134;2022-12-16T14:17:40;27.57;;;9.27;;
6549;SDS011;15142;48.888;9.134;2022-12-16T14:20:31;17.63;;;9.80;;
6549;SDS011;15142;48.888;9.134;2022-12-16T14:23:24;23.03;;;11.07;;
6549;SDS011;15142;48.888;9.134;2022-12-16T14:26:14;21.43;;;10.40;;
6549;SDS011;15142;48.888;9.134;2022-12-16T14:29:12;20.43;;;11.30;;
6549;SDS011;15142;48.888;9.134;2022-12-16T14:32:19;25.77;;;12.20;;
6549;SDS011;15142;48.888;9.134;2022-12-16T14:35:06;25.33;;;10.93;;
6549;SDS011;15142;48.888;9.134;2022-12-16T14:37:55;22.90;;;11.87;;
6549;SDS011;15142;48.888;9.134;2022-12-16T14:40:40;27.83;;;13.33;;
6549;SDS011;15142;48.888;9.134;2022-12-16T14:43:24;25.07;;;13.90;;
6549;SDS011;15142;48.888;9.134;2022-12-16T14:46:21;22.57;;;13.17;;
6549;SDS011;15142;48.888;9.134;2022-12-16T14:49:14;21.60;;;13.10;;
6549;SDS011;15142;48.888;9.134;2022-12-16T14:52:08;22.20;;;11.30;;
6549;SDS011;15142;48.888;9.134;2022-12-16T14:54:58;22.00;;;11.63;;
6549;SDS011;15142;48.888;9.134;2022-12-16T14:57:59;24.60;;;12.70;;
6549;SDS011;15142;48.888;9.134;2022-12-16T15:00:45;32.63;;;13.60;;
6549;SDS011;15142;48.888;9.134;2022-12-16T15:03:33;27.43;;;12.03;;
6549;SDS011;15142;48.888;9.134;2022-12-16T15:06:22;22.80;;;11.13;;
6549;SDS011;15142;48.888;9.134;2022-12-16T15:09:11;26.43;;;12.97;;
6549;SDS011;15142;48.888;9.134;2022-12-16T15:12:01;26.40;;;13.40;;
6549;SDS011;15142;48.888;9.134;2022-12-16T15:14:45;24.70;;;13.60;;
6549;SDS011;15142;48.888;9.134;2022-12-16T15:17:30;29.93;;;13.87;;
6549;SDS011;15142;48.888;9.134;2022-12-16T15:20:26;25.83;;;11.20;;
6549;SDS011;15142;48.888;9.134;2022-12-16T15:23:14;26.40;;;12.43;;
6549;SDS011;15142;48.888;9.134;2022-12-16T15:26:03;21.47;;;11.67;;
6549;SDS011;15142;48.888;9.134;2022-12-16T15:28:48;23.30;;;11.80;;
6549;SDS011;15142;48.888;9.134;2022-12-16T15:31:33;26.63;;;12.93;;
6549;SDS011;15142;48.888;9.134;2022-12-16T15:34:26;28.70;;;12.53;;
6549;SDS011;15142;48.888;9.134;2022-12-16T15:37:17;31.20;;;13.77;;
6549;SDS011;15142;48.888;9.134;2022-12-16T15:40:13;24.17;;;12.93;;
6549;SDS011;15142;48.888;9.134;2022-12-16T15:43:15;27.07;;;13.13;;
6549;SDS011;15142;48.888;9.134;2022-12-16T15:46:04;18.43;;;12.17;;
6549;SDS011;15142;48.888;9.134;2022-12-16T15:48:48;22.73;;;14.37;;
6549;SDS011;15142;48.888;9.134;2022-12-16T15:51:41;24.07;;;14.00;;
6549;SDS011;15142;48.888;9.134;2022-12-16T15:54:29;29.70;;;15.20;;
6549;SDS011;15142;48.888;9.134;2022-12-16T15:57:22;29.27;;;12.30;;
6549;SDS011;15142;48.888;9.134;2022-12-16T16:00:16;27.53;;;12.57;;
6549;SDS011;15142;48.888;9.134;2022-12-16T16:03:01;22.60;;;13.03;;
6549;SDS011;15142;48.888;9.134;2022-12-16T16:05:45;23.17;;;12.73;;
6549;SDS011;15142;48.888;9.134;2022-12-16T16:08:29;29.63;;;12.70;;
6549;SDS011;15142;48.888;9.134;2022-12-16T16:11:20;28.13;;;13.43;;
6549;SDS011;15142;48.888;9.134;2022-12-16T16:14:05;27.20;;;14.13;;
6549;SDS011;15142;48.888;9.134;2022-12-16T16:16:49;26.50;;;13.60;;
6549;SDS011;15142;48.888;9.134;2022-12-16T16:19:32;35.50;;;15.37;;
6549;SDS011;15142;48.888;9.134;2022-12-16T16:22:12;23.23;;;13.40;;
6549;SDS011;15142;48.888;9.134;2022-12-16T16:24:58;35.60;;;15.30;;
6549;SDS011;15142;48.888;9.134;2022-12-16T16:27:44;30.10;;;13.53;;
6549;SDS011;15142;48.888;9.134;2022-12-16T16:30:28;29.00;;;16.90;;